<?xml version="1.0" encoding="UTF-8" standalone="no" ?>
<gpx xmlns="http://www.topografix.com/GPX/1/1" xmlns:xsi="http://www.w3.org/2001/XMLSchema-instance" xsi:schemaLocation="http://www.topografix.com/GPX/1/1 http://www.topografix.com/GPX/1/1/gpx.xsd" version="1.1" creator="VisuGPX - https://www.visugpx.com">
  <metadata>
    <name>Vol du 16 06 17</name>
    <desc><![CDATA[Vol du 16 06 17 en C172 F-GRFR]]></desc>
  </metadata>
  <trk>
    <name><![CDATA[Vol du 16 06 17_1]]></name>
    <trkseg>
      <trkpt lat="47.7444" lon="7.4341">
        <ele>244</ele>
        <time>2017-06-16T12:58:08Z</time>
      </trkpt>
      <trkpt lat="47.7451" lon="7.4344">
        <ele>244</ele>
        <time>2017-06-16T12:58:16Z</time>
      </trkpt>
      <trkpt lat="47.7454" lon="7.4345">
        <ele>244</ele>
        <time>2017-06-16T12:58:22Z</time>
      </trkpt>
      <trkpt lat="47.7454" lon="7.4347">
        <ele>244</ele>
        <time>2017-06-16T12:58:27Z</time>
      </trkpt>
      <trkpt lat="47.7454" lon="7.4347">
        <ele>244</ele>
        <time>2017-06-16T12:58:32Z</time>
      </trkpt>
      <trkpt lat="47.7454" lon="7.4346">
        <ele>244</ele>
        <time>2017-06-16T12:59:12Z</time>
      </trkpt>
      <trkpt lat="47.7454" lon="7.4346">
        <ele>244</ele>
        <time>2017-06-16T12:59:17Z</time>
      </trkpt>
      <trkpt lat="47.7447" lon="7.4343">
        <ele>245</ele>
        <time>2017-06-16T12:59:22Z</time>
      </trkpt>
      <trkpt lat="47.7435" lon="7.4335">
        <ele>246</ele>
        <time>2017-06-16T12:59:27Z</time>
      </trkpt>
      <trkpt lat="47.7416" lon="7.4324">
        <ele>249</ele>
        <time>2017-06-16T12:59:35Z</time>
      </trkpt>
      <trkpt lat="47.734" lon="7.4279">
        <ele>283</ele>
        <time>2017-06-16T13:00:04Z</time>
      </trkpt>
      <trkpt lat="47.7324" lon="7.4275">
        <ele>297</ele>
        <time>2017-06-16T13:00:09Z</time>
      </trkpt>
      <trkpt lat="47.7308" lon="7.4281">
        <ele>311</ele>
        <time>2017-06-16T13:00:14Z</time>
      </trkpt>
      <trkpt lat="47.7283" lon="7.43">
        <ele>348</ele>
        <time>2017-06-16T13:00:22Z</time>
      </trkpt>
      <trkpt lat="47.7268" lon="7.4315">
        <ele>367</ele>
        <time>2017-06-16T13:00:27Z</time>
      </trkpt>
      <trkpt lat="47.7255" lon="7.4334">
        <ele>386</ele>
        <time>2017-06-16T13:00:32Z</time>
      </trkpt>
      <trkpt lat="47.7247" lon="7.436">
        <ele>406</ele>
        <time>2017-06-16T13:00:37Z</time>
      </trkpt>
      <trkpt lat="47.7245" lon="7.4391">
        <ele>429</ele>
        <time>2017-06-16T13:00:42Z</time>
      </trkpt>
      <trkpt lat="47.7252" lon="7.4421">
        <ele>442</ele>
        <time>2017-06-16T13:00:47Z</time>
      </trkpt>
      <trkpt lat="47.7266" lon="7.4447">
        <ele>451</ele>
        <time>2017-06-16T13:00:52Z</time>
      </trkpt>
      <trkpt lat="47.7283" lon="7.4467">
        <ele>457</ele>
        <time>2017-06-16T13:00:57Z</time>
      </trkpt>
      <trkpt lat="47.7332" lon="7.4509">
        <ele>492</ele>
        <time>2017-06-16T13:01:10Z</time>
      </trkpt>
      <trkpt lat="47.7525" lon="7.4655">
        <ele>572</ele>
        <time>2017-06-16T13:01:56Z</time>
      </trkpt>
      <trkpt lat="47.7757" lon="7.4856">
        <ele>584</ele>
        <time>2017-06-16T13:02:50Z</time>
      </trkpt>
      <trkpt lat="47.7908" lon="7.4964">
        <ele>579</ele>
        <time>2017-06-16T13:03:25Z</time>
      </trkpt>
      <trkpt lat="47.8138" lon="7.5183">
        <ele>604</ele>
        <time>2017-06-16T13:04:25Z</time>
      </trkpt>
      <trkpt lat="47.8163" lon="7.5208">
        <ele>609</ele>
        <time>2017-06-16T13:04:32Z</time>
      </trkpt>
      <trkpt lat="47.8177" lon="7.523">
        <ele>613</ele>
        <time>2017-06-16T13:04:37Z</time>
      </trkpt>
      <trkpt lat="47.8184" lon="7.5259">
        <ele>617</ele>
        <time>2017-06-16T13:04:42Z</time>
      </trkpt>
      <trkpt lat="47.8186" lon="7.5291">
        <ele>620</ele>
        <time>2017-06-16T13:04:47Z</time>
      </trkpt>
      <trkpt lat="47.8184" lon="7.5323">
        <ele>625</ele>
        <time>2017-06-16T13:04:52Z</time>
      </trkpt>
      <trkpt lat="47.8179" lon="7.5355">
        <ele>628</ele>
        <time>2017-06-16T13:04:57Z</time>
      </trkpt>
      <trkpt lat="47.8172" lon="7.5385">
        <ele>632</ele>
        <time>2017-06-16T13:05:02Z</time>
      </trkpt>
      <trkpt lat="47.8156" lon="7.5438">
        <ele>635</ele>
        <time>2017-06-16T13:05:11Z</time>
      </trkpt>
      <trkpt lat="47.8144" lon="7.5464">
        <ele>638</ele>
        <time>2017-06-16T13:05:16Z</time>
      </trkpt>
      <trkpt lat="47.8127" lon="7.5484">
        <ele>641</ele>
        <time>2017-06-16T13:05:21Z</time>
      </trkpt>
      <trkpt lat="47.8107" lon="7.5495">
        <ele>645</ele>
        <time>2017-06-16T13:05:26Z</time>
      </trkpt>
      <trkpt lat="47.8086" lon="7.5501">
        <ele>648</ele>
        <time>2017-06-16T13:05:31Z</time>
      </trkpt>
      <trkpt lat="47.7953" lon="7.5524">
        <ele>693</ele>
        <time>2017-06-16T13:06:04Z</time>
      </trkpt>
      <trkpt lat="47.7925" lon="7.5536">
        <ele>722</ele>
        <time>2017-06-16T13:06:12Z</time>
      </trkpt>
      <trkpt lat="47.7829" lon="7.5591">
        <ele>850</ele>
        <time>2017-06-16T13:06:42Z</time>
      </trkpt>
      <trkpt lat="47.7742" lon="7.5653">
        <ele>932</ele>
        <time>2017-06-16T13:07:09Z</time>
      </trkpt>
      <trkpt lat="47.7723" lon="7.5665">
        <ele>941</ele>
        <time>2017-06-16T13:07:14Z</time>
      </trkpt>
      <trkpt lat="47.7704" lon="7.5673">
        <ele>950</ele>
        <time>2017-06-16T13:07:19Z</time>
      </trkpt>
      <trkpt lat="47.767" lon="7.5681">
        <ele>956</ele>
        <time>2017-06-16T13:07:27Z</time>
      </trkpt>
      <trkpt lat="47.7508" lon="7.5713">
        <ele>983</ele>
        <time>2017-06-16T13:08:06Z</time>
      </trkpt>
      <trkpt lat="47.737" lon="7.5744">
        <ele>1001</ele>
        <time>2017-06-16T13:08:39Z</time>
      </trkpt>
      <trkpt lat="47.7119" lon="7.5777">
        <ele>1015</ele>
        <time>2017-06-16T13:09:39Z</time>
      </trkpt>
      <trkpt lat="47.6861" lon="7.5817">
        <ele>1012</ele>
        <time>2017-06-16T13:10:39Z</time>
      </trkpt>
      <trkpt lat="47.6592" lon="7.5825">
        <ele>1000</ele>
        <time>2017-06-16T13:11:39Z</time>
      </trkpt>
      <trkpt lat="47.6317" lon="7.5815">
        <ele>951</ele>
        <time>2017-06-16T13:12:39Z</time>
      </trkpt>
      <trkpt lat="47.6294" lon="7.5808">
        <ele>944</ele>
        <time>2017-06-16T13:12:44Z</time>
      </trkpt>
      <trkpt lat="47.6239" lon="7.5782">
        <ele>935</ele>
        <time>2017-06-16T13:12:57Z</time>
      </trkpt>
      <trkpt lat="47.6214" lon="7.5767">
        <ele>931</ele>
        <time>2017-06-16T13:13:03Z</time>
      </trkpt>
      <trkpt lat="47.6184" lon="7.5743">
        <ele>926</ele>
        <time>2017-06-16T13:13:11Z</time>
      </trkpt>
      <trkpt lat="47.6152" lon="7.5711">
        <ele>922</ele>
        <time>2017-06-16T13:13:20Z</time>
      </trkpt>
      <trkpt lat="47.6131" lon="7.5687">
        <ele>919</ele>
        <time>2017-06-16T13:13:26Z</time>
      </trkpt>
      <trkpt lat="47.6108" lon="7.5651">
        <ele>918</ele>
        <time>2017-06-16T13:13:34Z</time>
      </trkpt>
      <trkpt lat="47.6038" lon="7.5533">
        <ele>910</ele>
        <time>2017-06-16T13:14:00Z</time>
      </trkpt>
      <trkpt lat="47.5957" lon="7.5367">
        <ele>897</ele>
        <time>2017-06-16T13:14:34Z</time>
      </trkpt>
      <trkpt lat="47.5927" lon="7.5287">
        <ele>886</ele>
        <time>2017-06-16T13:14:50Z</time>
      </trkpt>
      <trkpt lat="47.5917" lon="7.5256">
        <ele>882</ele>
        <time>2017-06-16T13:14:56Z</time>
      </trkpt>
      <trkpt lat="47.5907" lon="7.5231">
        <ele>880</ele>
        <time>2017-06-16T13:15:01Z</time>
      </trkpt>
      <trkpt lat="47.5899" lon="7.5205">
        <ele>879</ele>
        <time>2017-06-16T13:15:06Z</time>
      </trkpt>
      <trkpt lat="47.5891" lon="7.5172">
        <ele>878</ele>
        <time>2017-06-16T13:15:12Z</time>
      </trkpt>
      <trkpt lat="47.5877" lon="7.5132">
        <ele>879</ele>
        <time>2017-06-16T13:15:20Z</time>
      </trkpt>
      <trkpt lat="47.5861" lon="7.5094">
        <ele>880</ele>
        <time>2017-06-16T13:15:28Z</time>
      </trkpt>
      <trkpt lat="47.5843" lon="7.5059">
        <ele>880</ele>
        <time>2017-06-16T13:15:36Z</time>
      </trkpt>
      <trkpt lat="47.5822" lon="7.5027">
        <ele>883</ele>
        <time>2017-06-16T13:15:44Z</time>
      </trkpt>
      <trkpt lat="47.5784" lon="7.4978">
        <ele>888</ele>
        <time>2017-06-16T13:15:57Z</time>
      </trkpt>
      <trkpt lat="47.5722" lon="7.4905">
        <ele>895</ele>
        <time>2017-06-16T13:16:18Z</time>
      </trkpt>
      <trkpt lat="47.5701" lon="7.4873">
        <ele>896</ele>
        <time>2017-06-16T13:16:26Z</time>
      </trkpt>
      <trkpt lat="47.5688" lon="7.4849">
        <ele>898</ele>
        <time>2017-06-16T13:16:32Z</time>
      </trkpt>
      <trkpt lat="47.5662" lon="7.4792">
        <ele>899</ele>
        <time>2017-06-16T13:16:45Z</time>
      </trkpt>
      <trkpt lat="47.5654" lon="7.4768">
        <ele>898</ele>
        <time>2017-06-16T13:16:50Z</time>
      </trkpt>
      <trkpt lat="47.5631" lon="7.4676">
        <ele>894</ele>
        <time>2017-06-16T13:17:08Z</time>
      </trkpt>
      <trkpt lat="47.5592" lon="7.4517">
        <ele>886</ele>
        <time>2017-06-16T13:17:40Z</time>
      </trkpt>
      <trkpt lat="47.5584" lon="7.4489">
        <ele>884</ele>
        <time>2017-06-16T13:17:46Z</time>
      </trkpt>
      <trkpt lat="47.5567" lon="7.4449">
        <ele>885</ele>
        <time>2017-06-16T13:17:55Z</time>
      </trkpt>
      <trkpt lat="47.5553" lon="7.4423">
        <ele>886</ele>
        <time>2017-06-16T13:18:01Z</time>
      </trkpt>
      <trkpt lat="47.5479" lon="7.4296">
        <ele>896</ele>
        <time>2017-06-16T13:18:31Z</time>
      </trkpt>
      <trkpt lat="47.5362" lon="7.4066">
        <ele>931</ele>
        <time>2017-06-16T13:19:24Z</time>
      </trkpt>
      <trkpt lat="47.5298" lon="7.3899">
        <ele>943</ele>
        <time>2017-06-16T13:20:00Z</time>
      </trkpt>
      <trkpt lat="47.528" lon="7.3843">
        <ele>942</ele>
        <time>2017-06-16T13:20:11Z</time>
      </trkpt>
      <trkpt lat="47.5193" lon="7.3595">
        <ele>961</ele>
        <time>2017-06-16T13:21:02Z</time>
      </trkpt>
      <trkpt lat="47.5162" lon="7.3482">
        <ele>969</ele>
        <time>2017-06-16T13:21:24Z</time>
      </trkpt>
      <trkpt lat="47.5124" lon="7.3333">
        <ele>981</ele>
        <time>2017-06-16T13:21:54Z</time>
      </trkpt>
      <trkpt lat="47.5114" lon="7.3309">
        <ele>984</ele>
        <time>2017-06-16T13:21:59Z</time>
      </trkpt>
      <trkpt lat="47.51" lon="7.329">
        <ele>986</ele>
        <time>2017-06-16T13:22:04Z</time>
      </trkpt>
      <trkpt lat="47.5069" lon="7.3263">
        <ele>990</ele>
        <time>2017-06-16T13:22:13Z</time>
      </trkpt>
      <trkpt lat="47.5055" lon="7.3242">
        <ele>993</ele>
        <time>2017-06-16T13:22:18Z</time>
      </trkpt>
      <trkpt lat="47.5047" lon="7.3218">
        <ele>995</ele>
        <time>2017-06-16T13:22:23Z</time>
      </trkpt>
      <trkpt lat="47.5042" lon="7.319">
        <ele>996</ele>
        <time>2017-06-16T13:22:28Z</time>
      </trkpt>
      <trkpt lat="47.5042" lon="7.3162">
        <ele>1000</ele>
        <time>2017-06-16T13:22:33Z</time>
      </trkpt>
      <trkpt lat="47.5044" lon="7.3134">
        <ele>1003</ele>
        <time>2017-06-16T13:22:38Z</time>
      </trkpt>
      <trkpt lat="47.5052" lon="7.3109">
        <ele>1004</ele>
        <time>2017-06-16T13:22:43Z</time>
      </trkpt>
      <trkpt lat="47.5062" lon="7.3086">
        <ele>1006</ele>
        <time>2017-06-16T13:22:48Z</time>
      </trkpt>
      <trkpt lat="47.5106" lon="7.3006">
        <ele>1011</ele>
        <time>2017-06-16T13:23:06Z</time>
      </trkpt>
      <trkpt lat="47.5155" lon="7.2927">
        <ele>1012</ele>
        <time>2017-06-16T13:23:25Z</time>
      </trkpt>
      <trkpt lat="47.5171" lon="7.2909">
        <ele>1011</ele>
        <time>2017-06-16T13:23:30Z</time>
      </trkpt>
      <trkpt lat="47.5326" lon="7.2759">
        <ele>1009</ele>
        <time>2017-06-16T13:24:16Z</time>
      </trkpt>
      <trkpt lat="47.5373" lon="7.2698">
        <ele>1010</ele>
        <time>2017-06-16T13:24:32Z</time>
      </trkpt>
      <trkpt lat="47.541" lon="7.264">
        <ele>1005</ele>
        <time>2017-06-16T13:24:46Z</time>
      </trkpt>
      <trkpt lat="47.5515" lon="7.2474">
        <ele>995</ele>
        <time>2017-06-16T13:25:25Z</time>
      </trkpt>
      <trkpt lat="47.5539" lon="7.2443">
        <ele>996</ele>
        <time>2017-06-16T13:25:33Z</time>
      </trkpt>
      <trkpt lat="47.5556" lon="7.2426">
        <ele>995</ele>
        <time>2017-06-16T13:25:38Z</time>
      </trkpt>
      <trkpt lat="47.5574" lon="7.2412">
        <ele>994</ele>
        <time>2017-06-16T13:25:43Z</time>
      </trkpt>
      <trkpt lat="47.5737" lon="7.2308">
        <ele>985</ele>
        <time>2017-06-16T13:26:25Z</time>
      </trkpt>
      <trkpt lat="47.5764" lon="7.2283">
        <ele>984</ele>
        <time>2017-06-16T13:26:33Z</time>
      </trkpt>
      <trkpt lat="47.5811" lon="7.2229">
        <ele>986</ele>
        <time>2017-06-16T13:26:48Z</time>
      </trkpt>
      <trkpt lat="47.5811" lon="7.2229">
        <ele>986</ele>
        <time>2017-06-16T13:26:48Z</time>
      </trkpt>
      <trkpt lat="47.5811" lon="7.2229">
        <ele>986</ele>
        <time>2017-06-16T13:26:48Z</time>
      </trkpt>
      <trkpt lat="47.5836" lon="7.2194">
        <ele>985</ele>
        <time>2017-06-16T13:26:57Z</time>
      </trkpt>
      <trkpt lat="47.5836" lon="7.2194">
        <ele>985</ele>
        <time>2017-06-16T13:26:57Z</time>
      </trkpt>
      <trkpt lat="47.5836" lon="7.2194">
        <ele>985</ele>
        <time>2017-06-16T13:26:57Z</time>
      </trkpt>
      <trkpt lat="47.5883" lon="7.2126">
        <ele>986</ele>
        <time>2017-06-16T13:27:14Z</time>
      </trkpt>
      <trkpt lat="47.5883" lon="7.2126">
        <ele>986</ele>
        <time>2017-06-16T13:27:14Z</time>
      </trkpt>
      <trkpt lat="47.5883" lon="7.2126">
        <ele>986</ele>
        <time>2017-06-16T13:27:14Z</time>
      </trkpt>
      <trkpt lat="47.5979" lon="7.2018">
        <ele>986</ele>
        <time>2017-06-16T13:27:45Z</time>
      </trkpt>
      <trkpt lat="47.5979" lon="7.2018">
        <ele>986</ele>
        <time>2017-06-16T13:27:45Z</time>
      </trkpt>
      <trkpt lat="47.5979" lon="7.2018">
        <ele>986</ele>
        <time>2017-06-16T13:27:45Z</time>
      </trkpt>
      <trkpt lat="47.5996" lon="7.2002">
        <ele>985</ele>
        <time>2017-06-16T13:27:50Z</time>
      </trkpt>
      <trkpt lat="47.5996" lon="7.2002">
        <ele>985</ele>
        <time>2017-06-16T13:27:50Z</time>
      </trkpt>
      <trkpt lat="47.5996" lon="7.2002">
        <ele>985</ele>
        <time>2017-06-16T13:27:50Z</time>
      </trkpt>
      <trkpt lat="47.6029" lon="7.1978">
        <ele>985</ele>
        <time>2017-06-16T13:27:59Z</time>
      </trkpt>
      <trkpt lat="47.6029" lon="7.1978">
        <ele>985</ele>
        <time>2017-06-16T13:27:59Z</time>
      </trkpt>
      <trkpt lat="47.6029" lon="7.1978">
        <ele>985</ele>
        <time>2017-06-16T13:27:59Z</time>
      </trkpt>
      <trkpt lat="47.608" lon="7.1947">
        <ele>986</ele>
        <time>2017-06-16T13:28:12Z</time>
      </trkpt>
      <trkpt lat="47.608" lon="7.1947">
        <ele>986</ele>
        <time>2017-06-16T13:28:12Z</time>
      </trkpt>
      <trkpt lat="47.6186" lon="7.1907">
        <ele>988</ele>
        <time>2017-06-16T13:28:37Z</time>
      </trkpt>
      <trkpt lat="47.6186" lon="7.1907">
        <ele>988</ele>
        <time>2017-06-16T13:28:37Z</time>
      </trkpt>
      <trkpt lat="47.6349" lon="7.1847">
        <ele>1002</ele>
        <time>2017-06-16T13:29:16Z</time>
      </trkpt>
      <trkpt lat="47.6349" lon="7.1847">
        <ele>1002</ele>
        <time>2017-06-16T13:29:16Z</time>
      </trkpt>
      <trkpt lat="47.6591" lon="7.1722">
        <ele>1021</ele>
        <time>2017-06-16T13:30:16Z</time>
      </trkpt>
      <trkpt lat="47.6836" lon="7.1614">
        <ele>1032</ele>
        <time>2017-06-16T13:31:16Z</time>
      </trkpt>
      <trkpt lat="47.6918" lon="7.157">
        <ele>1031</ele>
        <time>2017-06-16T13:31:35Z</time>
      </trkpt>
      <trkpt lat="47.7068" lon="7.1508">
        <ele>1022</ele>
        <time>2017-06-16T13:32:11Z</time>
      </trkpt>
      <trkpt lat="47.7106" lon="7.1483">
        <ele>1021</ele>
        <time>2017-06-16T13:32:21Z</time>
      </trkpt>
      <trkpt lat="47.7201" lon="7.1417">
        <ele>1002</ele>
        <time>2017-06-16T13:32:46Z</time>
      </trkpt>
      <trkpt lat="47.7221" lon="7.1407">
        <ele>995</ele>
        <time>2017-06-16T13:32:51Z</time>
      </trkpt>
      <trkpt lat="47.7247" lon="7.1399">
        <ele>989</ele>
        <time>2017-06-16T13:32:57Z</time>
      </trkpt>
      <trkpt lat="47.7273" lon="7.1394">
        <ele>983</ele>
        <time>2017-06-16T13:33:03Z</time>
      </trkpt>
      <trkpt lat="47.7309" lon="7.1392">
        <ele>975</ele>
        <time>2017-06-16T13:33:11Z</time>
      </trkpt>
      <trkpt lat="47.738" lon="7.1394">
        <ele>962</ele>
        <time>2017-06-16T13:33:27Z</time>
      </trkpt>
      <trkpt lat="47.7437" lon="7.1389">
        <ele>951</ele>
        <time>2017-06-16T13:33:40Z</time>
      </trkpt>
      <trkpt lat="47.7473" lon="7.1392">
        <ele>942</ele>
        <time>2017-06-16T13:33:48Z</time>
      </trkpt>
      <trkpt lat="47.7589" lon="7.1421">
        <ele>905</ele>
        <time>2017-06-16T13:34:13Z</time>
      </trkpt>
      <trkpt lat="47.766" lon="7.1446">
        <ele>895</ele>
        <time>2017-06-16T13:34:29Z</time>
      </trkpt>
      <trkpt lat="47.7704" lon="7.1452">
        <ele>897</ele>
        <time>2017-06-16T13:34:39Z</time>
      </trkpt>
      <trkpt lat="47.7926" lon="7.1452">
        <ele>933</ele>
        <time>2017-06-16T13:35:31Z</time>
      </trkpt>
      <trkpt lat="47.7989" lon="7.1468">
        <ele>935</ele>
        <time>2017-06-16T13:35:46Z</time>
      </trkpt>
      <trkpt lat="47.8075" lon="7.15">
        <ele>938</ele>
        <time>2017-06-16T13:36:06Z</time>
      </trkpt>
      <trkpt lat="47.8132" lon="7.1533">
        <ele>939</ele>
        <time>2017-06-16T13:36:20Z</time>
      </trkpt>
      <trkpt lat="47.8184" lon="7.1571">
        <ele>943</ele>
        <time>2017-06-16T13:36:33Z</time>
      </trkpt>
      <trkpt lat="47.8248" lon="7.1632">
        <ele>950</ele>
        <time>2017-06-16T13:36:50Z</time>
      </trkpt>
      <trkpt lat="47.8367" lon="7.1755">
        <ele>965</ele>
        <time>2017-06-16T13:37:22Z</time>
      </trkpt>
      <trkpt lat="47.8387" lon="7.1763">
        <ele>971</ele>
        <time>2017-06-16T13:37:27Z</time>
      </trkpt>
      <trkpt lat="47.8404" lon="7.1753">
        <ele>1002</ele>
        <time>2017-06-16T13:37:32Z</time>
      </trkpt>
      <trkpt lat="47.8414" lon="7.1733">
        <ele>1026</ele>
        <time>2017-06-16T13:37:37Z</time>
      </trkpt>
      <trkpt lat="47.8421" lon="7.1711">
        <ele>1048</ele>
        <time>2017-06-16T13:37:42Z</time>
      </trkpt>
      <trkpt lat="47.8432" lon="7.1663">
        <ele>1072</ele>
        <time>2017-06-16T13:37:52Z</time>
      </trkpt>
      <trkpt lat="47.845" lon="7.1591">
        <ele>1101</ele>
        <time>2017-06-16T13:38:07Z</time>
      </trkpt>
      <trkpt lat="47.8458" lon="7.1568">
        <ele>1110</ele>
        <time>2017-06-16T13:38:12Z</time>
      </trkpt>
      <trkpt lat="47.8469" lon="7.1547">
        <ele>1117</ele>
        <time>2017-06-16T13:38:17Z</time>
      </trkpt>
      <trkpt lat="47.8483" lon="7.1529">
        <ele>1123</ele>
        <time>2017-06-16T13:38:22Z</time>
      </trkpt>
      <trkpt lat="47.8498" lon="7.1513">
        <ele>1126</ele>
        <time>2017-06-16T13:38:27Z</time>
      </trkpt>
      <trkpt lat="47.852" lon="7.1494">
        <ele>1131</ele>
        <time>2017-06-16T13:38:34Z</time>
      </trkpt>
      <trkpt lat="47.8572" lon="7.1456">
        <ele>1139</ele>
        <time>2017-06-16T13:38:49Z</time>
      </trkpt>
      <trkpt lat="47.8591" lon="7.1449">
        <ele>1141</ele>
        <time>2017-06-16T13:38:54Z</time>
      </trkpt>
      <trkpt lat="47.8611" lon="7.1451">
        <ele>1144</ele>
        <time>2017-06-16T13:38:59Z</time>
      </trkpt>
      <trkpt lat="47.863" lon="7.1462">
        <ele>1148</ele>
        <time>2017-06-16T13:39:04Z</time>
      </trkpt>
      <trkpt lat="47.8647" lon="7.1483">
        <ele>1152</ele>
        <time>2017-06-16T13:39:09Z</time>
      </trkpt>
      <trkpt lat="47.8662" lon="7.1508">
        <ele>1156</ele>
        <time>2017-06-16T13:39:14Z</time>
      </trkpt>
      <trkpt lat="47.881" lon="7.1798">
        <ele>1206</ele>
        <time>2017-06-16T13:40:07Z</time>
      </trkpt>
      <trkpt lat="47.8866" lon="7.1876">
        <ele>1221</ele>
        <time>2017-06-16T13:40:25Z</time>
      </trkpt>
      <trkpt lat="47.8906" lon="7.1924">
        <ele>1227</ele>
        <time>2017-06-16T13:40:37Z</time>
      </trkpt>
      <trkpt lat="47.9077" lon="7.2123">
        <ele>1225</ele>
        <time>2017-06-16T13:41:24Z</time>
      </trkpt>
      <trkpt lat="47.9116" lon="7.2173">
        <ele>1224</ele>
        <time>2017-06-16T13:41:35Z</time>
      </trkpt>
      <trkpt lat="47.9318" lon="7.2396">
        <ele>1220</ele>
        <time>2017-06-16T13:42:28Z</time>
      </trkpt>
      <trkpt lat="47.9362" lon="7.2433">
        <ele>1221</ele>
        <time>2017-06-16T13:42:39Z</time>
      </trkpt>
      <trkpt lat="47.9418" lon="7.2469">
        <ele>1223</ele>
        <time>2017-06-16T13:42:52Z</time>
      </trkpt>
      <trkpt lat="47.952" lon="7.2527">
        <ele>1236</ele>
        <time>2017-06-16T13:43:15Z</time>
      </trkpt>
      <trkpt lat="47.9575" lon="7.2562">
        <ele>1252</ele>
        <time>2017-06-16T13:43:28Z</time>
      </trkpt>
      <trkpt lat="47.9848" lon="7.2692">
        <ele>1260</ele>
        <time>2017-06-16T13:44:28Z</time>
      </trkpt>
      <trkpt lat="47.9999" lon="7.2762">
        <ele>1254</ele>
        <time>2017-06-16T13:45:01Z</time>
      </trkpt>
      <trkpt lat="48.0142" lon="7.2806">
        <ele>1222</ele>
        <time>2017-06-16T13:45:31Z</time>
      </trkpt>
      <trkpt lat="48.0167" lon="7.2807">
        <ele>1215</ele>
        <time>2017-06-16T13:45:36Z</time>
      </trkpt>
      <trkpt lat="48.019" lon="7.28">
        <ele>1212</ele>
        <time>2017-06-16T13:45:41Z</time>
      </trkpt>
      <trkpt lat="48.0267" lon="7.2757">
        <ele>1198</ele>
        <time>2017-06-16T13:45:59Z</time>
      </trkpt>
      <trkpt lat="48.0303" lon="7.2733">
        <ele>1193</ele>
        <time>2017-06-16T13:46:08Z</time>
      </trkpt>
      <trkpt lat="48.0443" lon="7.263">
        <ele>1175</ele>
        <time>2017-06-16T13:46:44Z</time>
      </trkpt>
      <trkpt lat="48.0465" lon="7.262">
        <ele>1160</ele>
        <time>2017-06-16T13:46:49Z</time>
      </trkpt>
      <trkpt lat="48.0526" lon="7.2599">
        <ele>1128</ele>
        <time>2017-06-16T13:47:03Z</time>
      </trkpt>
      <trkpt lat="48.0557" lon="7.2592">
        <ele>1122</ele>
        <time>2017-06-16T13:47:10Z</time>
      </trkpt>
      <trkpt lat="48.058" lon="7.2593">
        <ele>1120</ele>
        <time>2017-06-16T13:47:15Z</time>
      </trkpt>
      <trkpt lat="48.0604" lon="7.2598">
        <ele>1119</ele>
        <time>2017-06-16T13:47:20Z</time>
      </trkpt>
      <trkpt lat="48.0711" lon="7.2636">
        <ele>1123</ele>
        <time>2017-06-16T13:47:44Z</time>
      </trkpt>
      <trkpt lat="48.076" lon="7.2658">
        <ele>1129</ele>
        <time>2017-06-16T13:47:55Z</time>
      </trkpt>
      <trkpt lat="48.0782" lon="7.2675">
        <ele>1133</ele>
        <time>2017-06-16T13:48:00Z</time>
      </trkpt>
      <trkpt lat="48.0843" lon="7.2722">
        <ele>1162</ele>
        <time>2017-06-16T13:48:15Z</time>
      </trkpt>
      <trkpt lat="48.0918" lon="7.2761">
        <ele>1170</ele>
        <time>2017-06-16T13:48:32Z</time>
      </trkpt>
      <trkpt lat="48.1187" lon="7.2886">
        <ele>1173</ele>
        <time>2017-06-16T13:49:32Z</time>
      </trkpt>
      <trkpt lat="48.1449" lon="7.3019">
        <ele>1159</ele>
        <time>2017-06-16T13:50:32Z</time>
      </trkpt>
      <trkpt lat="48.1551" lon="7.3072">
        <ele>1151</ele>
        <time>2017-06-16T13:50:56Z</time>
      </trkpt>
      <trkpt lat="48.1611" lon="7.3111">
        <ele>1150</ele>
        <time>2017-06-16T13:51:10Z</time>
      </trkpt>
      <trkpt lat="48.1757" lon="7.3178">
        <ele>1166</ele>
        <time>2017-06-16T13:51:44Z</time>
      </trkpt>
      <trkpt lat="48.18" lon="7.319">
        <ele>1170</ele>
        <time>2017-06-16T13:51:54Z</time>
      </trkpt>
      <trkpt lat="48.2061" lon="7.3253">
        <ele>1185</ele>
        <time>2017-06-16T13:52:54Z</time>
      </trkpt>
      <trkpt lat="48.2165" lon="7.3266">
        <ele>1176</ele>
        <time>2017-06-16T13:53:18Z</time>
      </trkpt>
      <trkpt lat="48.2327" lon="7.331">
        <ele>1088</ele>
        <time>2017-06-16T13:53:56Z</time>
      </trkpt>
      <trkpt lat="48.2497" lon="7.3334">
        <ele>1066</ele>
        <time>2017-06-16T13:54:40Z</time>
      </trkpt>
      <trkpt lat="48.2516" lon="7.3344">
        <ele>1069</ele>
        <time>2017-06-16T13:54:45Z</time>
      </trkpt>
      <trkpt lat="48.2531" lon="7.3364">
        <ele>1070</ele>
        <time>2017-06-16T13:54:50Z</time>
      </trkpt>
      <trkpt lat="48.2544" lon="7.3388">
        <ele>1070</ele>
        <time>2017-06-16T13:54:55Z</time>
      </trkpt>
      <trkpt lat="48.2555" lon="7.3415">
        <ele>1069</ele>
        <time>2017-06-16T13:55:00Z</time>
      </trkpt>
      <trkpt lat="48.2563" lon="7.3444">
        <ele>1070</ele>
        <time>2017-06-16T13:55:05Z</time>
      </trkpt>
      <trkpt lat="48.2567" lon="7.3476">
        <ele>1071</ele>
        <time>2017-06-16T13:55:10Z</time>
      </trkpt>
      <trkpt lat="48.2567" lon="7.3509">
        <ele>1073</ele>
        <time>2017-06-16T13:55:15Z</time>
      </trkpt>
      <trkpt lat="48.2564" lon="7.3542">
        <ele>1073</ele>
        <time>2017-06-16T13:55:20Z</time>
      </trkpt>
      <trkpt lat="48.2554" lon="7.3573">
        <ele>1072</ele>
        <time>2017-06-16T13:55:25Z</time>
      </trkpt>
      <trkpt lat="48.2539" lon="7.36">
        <ele>1074</ele>
        <time>2017-06-16T13:55:30Z</time>
      </trkpt>
      <trkpt lat="48.2522" lon="7.3624">
        <ele>1076</ele>
        <time>2017-06-16T13:55:35Z</time>
      </trkpt>
      <trkpt lat="48.2472" lon="7.3683">
        <ele>1085</ele>
        <time>2017-06-16T13:55:49Z</time>
      </trkpt>
      <trkpt lat="48.2453" lon="7.3711">
        <ele>1091</ele>
        <time>2017-06-16T13:55:55Z</time>
      </trkpt>
      <trkpt lat="48.2426" lon="7.3761">
        <ele>1109</ele>
        <time>2017-06-16T13:56:05Z</time>
      </trkpt>
      <trkpt lat="48.2407" lon="7.3805">
        <ele>1115</ele>
        <time>2017-06-16T13:56:13Z</time>
      </trkpt>
      <trkpt lat="48.2356" lon="7.3932">
        <ele>1142</ele>
        <time>2017-06-16T13:56:35Z</time>
      </trkpt>
      <trkpt lat="48.2332" lon="7.4003">
        <ele>1161</ele>
        <time>2017-06-16T13:56:46Z</time>
      </trkpt>
      <trkpt lat="48.2315" lon="7.4041">
        <ele>1170</ele>
        <time>2017-06-16T13:56:52Z</time>
      </trkpt>
      <trkpt lat="48.2299" lon="7.407">
        <ele>1182</ele>
        <time>2017-06-16T13:56:57Z</time>
      </trkpt>
      <trkpt lat="48.228" lon="7.4095">
        <ele>1196</ele>
        <time>2017-06-16T13:57:02Z</time>
      </trkpt>
      <trkpt lat="48.2257" lon="7.4121">
        <ele>1206</ele>
        <time>2017-06-16T13:57:08Z</time>
      </trkpt>
      <trkpt lat="48.215" lon="7.4217">
        <ele>1227</ele>
        <time>2017-06-16T13:57:34Z</time>
      </trkpt>
      <trkpt lat="48.2088" lon="7.4259">
        <ele>1235</ele>
        <time>2017-06-16T13:57:48Z</time>
      </trkpt>
      <trkpt lat="48.2004" lon="7.4305">
        <ele>1238</ele>
        <time>2017-06-16T13:58:06Z</time>
      </trkpt>
      <trkpt lat="48.194" lon="7.4336">
        <ele>1242</ele>
        <time>2017-06-16T13:58:20Z</time>
      </trkpt>
      <trkpt lat="48.1918" lon="7.4353">
        <ele>1242</ele>
        <time>2017-06-16T13:58:25Z</time>
      </trkpt>
      <trkpt lat="48.1898" lon="7.4373">
        <ele>1242</ele>
        <time>2017-06-16T13:58:30Z</time>
      </trkpt>
      <trkpt lat="48.1879" lon="7.4397">
        <ele>1243</ele>
        <time>2017-06-16T13:58:35Z</time>
      </trkpt>
      <trkpt lat="48.1733" lon="7.4593">
        <ele>1243</ele>
        <time>2017-06-16T13:59:14Z</time>
      </trkpt>
      <trkpt lat="48.1683" lon="7.4644">
        <ele>1242</ele>
        <time>2017-06-16T13:59:26Z</time>
      </trkpt>
      <trkpt lat="48.1432" lon="7.4892">
        <ele>1240</ele>
        <time>2017-06-16T14:00:26Z</time>
      </trkpt>
      <trkpt lat="48.1402" lon="7.4921">
        <ele>1239</ele>
        <time>2017-06-16T14:00:33Z</time>
      </trkpt>
      <trkpt lat="48.1322" lon="7.4984">
        <ele>1235</ele>
        <time>2017-06-16T14:00:51Z</time>
      </trkpt>
      <trkpt lat="48.1276" lon="7.5013">
        <ele>1233</ele>
        <time>2017-06-16T14:01:01Z</time>
      </trkpt>
      <trkpt lat="48.1021" lon="7.5144">
        <ele>1228</ele>
        <time>2017-06-16T14:01:57Z</time>
      </trkpt>
      <trkpt lat="48.0996" lon="7.5151">
        <ele>1228</ele>
        <time>2017-06-16T14:02:02Z</time>
      </trkpt>
      <trkpt lat="48.0959" lon="7.5159">
        <ele>1233</ele>
        <time>2017-06-16T14:02:10Z</time>
      </trkpt>
      <trkpt lat="48.0891" lon="7.5187">
        <ele>1230</ele>
        <time>2017-06-16T14:02:25Z</time>
      </trkpt>
      <trkpt lat="48.0623" lon="7.533">
        <ele>1233</ele>
        <time>2017-06-16T14:03:25Z</time>
      </trkpt>
      <trkpt lat="48.0524" lon="7.5384">
        <ele>1231</ele>
        <time>2017-06-16T14:03:47Z</time>
      </trkpt>
      <trkpt lat="48.0281" lon="7.5496">
        <ele>1232</ele>
        <time>2017-06-16T14:04:37Z</time>
      </trkpt>
      <trkpt lat="48.0256" lon="7.5502">
        <ele>1232</ele>
        <time>2017-06-16T14:04:42Z</time>
      </trkpt>
      <trkpt lat="48.0231" lon="7.5502">
        <ele>1232</ele>
        <time>2017-06-16T14:04:47Z</time>
      </trkpt>
      <trkpt lat="48.0207" lon="7.5495">
        <ele>1231</ele>
        <time>2017-06-16T14:04:52Z</time>
      </trkpt>
      <trkpt lat="48.0184" lon="7.5485">
        <ele>1230</ele>
        <time>2017-06-16T14:04:57Z</time>
      </trkpt>
      <trkpt lat="48.0162" lon="7.547">
        <ele>1229</ele>
        <time>2017-06-16T14:05:02Z</time>
      </trkpt>
      <trkpt lat="48.0142" lon="7.545">
        <ele>1229</ele>
        <time>2017-06-16T14:05:07Z</time>
      </trkpt>
      <trkpt lat="48.0105" lon="7.5407">
        <ele>1228</ele>
        <time>2017-06-16T14:05:17Z</time>
      </trkpt>
      <trkpt lat="47.9947" lon="7.5199">
        <ele>1220</ele>
        <time>2017-06-16T14:06:03Z</time>
      </trkpt>
      <trkpt lat="47.986" lon="7.5114">
        <ele>1215</ele>
        <time>2017-06-16T14:06:25Z</time>
      </trkpt>
      <trkpt lat="47.9775" lon="7.5048">
        <ele>1212</ele>
        <time>2017-06-16T14:06:45Z</time>
      </trkpt>
      <trkpt lat="47.9628" lon="7.4947">
        <ele>1204</ele>
        <time>2017-06-16T14:07:18Z</time>
      </trkpt>
      <trkpt lat="47.935" lon="7.4814">
        <ele>1187</ele>
        <time>2017-06-16T14:08:18Z</time>
      </trkpt>
      <trkpt lat="47.9194" lon="7.4725">
        <ele>1183</ele>
        <time>2017-06-16T14:08:54Z</time>
      </trkpt>
      <trkpt lat="47.9139" lon="7.4677">
        <ele>1174</ele>
        <time>2017-06-16T14:09:08Z</time>
      </trkpt>
      <trkpt lat="47.9083" lon="7.4619">
        <ele>1164</ele>
        <time>2017-06-16T14:09:23Z</time>
      </trkpt>
      <trkpt lat="47.9063" lon="7.4594">
        <ele>1162</ele>
        <time>2017-06-16T14:09:29Z</time>
      </trkpt>
      <trkpt lat="47.9035" lon="7.455">
        <ele>1154</ele>
        <time>2017-06-16T14:09:38Z</time>
      </trkpt>
      <trkpt lat="47.8855" lon="7.4239">
        <ele>1071</ele>
        <time>2017-06-16T14:10:38Z</time>
      </trkpt>
      <trkpt lat="47.8708" lon="7.4034">
        <ele>978</ele>
        <time>2017-06-16T14:11:20Z</time>
      </trkpt>
      <trkpt lat="47.8682" lon="7.4002">
        <ele>961</ele>
        <time>2017-06-16T14:11:27Z</time>
      </trkpt>
      <trkpt lat="47.8658" lon="7.3978">
        <ele>950</ele>
        <time>2017-06-16T14:11:33Z</time>
      </trkpt>
      <trkpt lat="47.8637" lon="7.3962">
        <ele>946</ele>
        <time>2017-06-16T14:11:38Z</time>
      </trkpt>
      <trkpt lat="47.8614" lon="7.3948">
        <ele>938</ele>
        <time>2017-06-16T14:11:43Z</time>
      </trkpt>
      <trkpt lat="47.8591" lon="7.3939">
        <ele>927</ele>
        <time>2017-06-16T14:11:48Z</time>
      </trkpt>
      <trkpt lat="47.8476" lon="7.3914">
        <ele>876</ele>
        <time>2017-06-16T14:12:12Z</time>
      </trkpt>
      <trkpt lat="47.8319" lon="7.39">
        <ele>793</ele>
        <time>2017-06-16T14:12:44Z</time>
      </trkpt>
      <trkpt lat="47.8157" lon="7.3898">
        <ele>707</ele>
        <time>2017-06-16T14:13:19Z</time>
      </trkpt>
      <trkpt lat="47.8128" lon="7.3902">
        <ele>698</ele>
        <time>2017-06-16T14:13:26Z</time>
      </trkpt>
      <trkpt lat="47.8014" lon="7.3939">
        <ele>676</ele>
        <time>2017-06-16T14:13:53Z</time>
      </trkpt>
      <trkpt lat="47.7992" lon="7.3949">
        <ele>676</ele>
        <time>2017-06-16T14:13:58Z</time>
      </trkpt>
      <trkpt lat="47.7953" lon="7.3972">
        <ele>671</ele>
        <time>2017-06-16T14:14:07Z</time>
      </trkpt>
      <trkpt lat="47.7783" lon="7.4103">
        <ele>587</ele>
        <time>2017-06-16T14:14:50Z</time>
      </trkpt>
      <trkpt lat="47.7742" lon="7.4137">
        <ele>570</ele>
        <time>2017-06-16T14:15:01Z</time>
      </trkpt>
      <trkpt lat="47.7611" lon="7.4221">
        <ele>549</ele>
        <time>2017-06-16T14:15:35Z</time>
      </trkpt>
      <trkpt lat="47.7578" lon="7.4235">
        <ele>549</ele>
        <time>2017-06-16T14:15:43Z</time>
      </trkpt>
      <trkpt lat="47.7495" lon="7.4259">
        <ele>551</ele>
        <time>2017-06-16T14:16:03Z</time>
      </trkpt>
      <trkpt lat="47.7391" lon="7.4283">
        <ele>549</ele>
        <time>2017-06-16T14:16:28Z</time>
      </trkpt>
      <trkpt lat="47.7371" lon="7.4292">
        <ele>550</ele>
        <time>2017-06-16T14:16:33Z</time>
      </trkpt>
      <trkpt lat="47.7351" lon="7.4305">
        <ele>550</ele>
        <time>2017-06-16T14:16:38Z</time>
      </trkpt>
      <trkpt lat="47.7332" lon="7.4321">
        <ele>554</ele>
        <time>2017-06-16T14:16:43Z</time>
      </trkpt>
      <trkpt lat="47.7313" lon="7.434">
        <ele>555</ele>
        <time>2017-06-16T14:16:48Z</time>
      </trkpt>
      <trkpt lat="47.7297" lon="7.4362">
        <ele>554</ele>
        <time>2017-06-16T14:16:53Z</time>
      </trkpt>
      <trkpt lat="47.729" lon="7.4395">
        <ele>554</ele>
        <time>2017-06-16T14:16:58Z</time>
      </trkpt>
      <trkpt lat="47.7295" lon="7.4431">
        <ele>549</ele>
        <time>2017-06-16T14:17:03Z</time>
      </trkpt>
      <trkpt lat="47.7309" lon="7.4459">
        <ele>547</ele>
        <time>2017-06-16T14:17:08Z</time>
      </trkpt>
      <trkpt lat="47.7325" lon="7.4482">
        <ele>547</ele>
        <time>2017-06-16T14:17:13Z</time>
      </trkpt>
      <trkpt lat="47.7432" lon="7.4601">
        <ele>546</ele>
        <time>2017-06-16T14:17:45Z</time>
      </trkpt>
      <trkpt lat="47.745" lon="7.4617">
        <ele>544</ele>
        <time>2017-06-16T14:17:50Z</time>
      </trkpt>
      <trkpt lat="47.7583" lon="7.4713">
        <ele>538</ele>
        <time>2017-06-16T14:18:24Z</time>
      </trkpt>
      <trkpt lat="47.7603" lon="7.4723">
        <ele>536</ele>
        <time>2017-06-16T14:18:29Z</time>
      </trkpt>
      <trkpt lat="47.7621" lon="7.4717">
        <ele>533</ele>
        <time>2017-06-16T14:18:34Z</time>
      </trkpt>
      <trkpt lat="47.7632" lon="7.4698">
        <ele>526</ele>
        <time>2017-06-16T14:18:39Z</time>
      </trkpt>
      <trkpt lat="47.7635" lon="7.4675">
        <ele>515</ele>
        <time>2017-06-16T14:18:44Z</time>
      </trkpt>
      <trkpt lat="47.7645" lon="7.4564">
        <ele>461</ele>
        <time>2017-06-16T14:19:08Z</time>
      </trkpt>
      <trkpt lat="47.7646" lon="7.4506">
        <ele>449</ele>
        <time>2017-06-16T14:19:21Z</time>
      </trkpt>
      <trkpt lat="47.7642" lon="7.4486">
        <ele>442</ele>
        <time>2017-06-16T14:19:26Z</time>
      </trkpt>
      <trkpt lat="47.7632" lon="7.447">
        <ele>423</ele>
        <time>2017-06-16T14:19:31Z</time>
      </trkpt>
      <trkpt lat="47.7621" lon="7.4458">
        <ele>409</ele>
        <time>2017-06-16T14:19:36Z</time>
      </trkpt>
      <trkpt lat="47.7609" lon="7.4449">
        <ele>402</ele>
        <time>2017-06-16T14:19:41Z</time>
      </trkpt>
      <trkpt lat="47.7597" lon="7.4441">
        <ele>395</ele>
        <time>2017-06-16T14:19:46Z</time>
      </trkpt>
      <trkpt lat="47.755" lon="7.4406">
        <ele>354</ele>
        <time>2017-06-16T14:20:06Z</time>
      </trkpt>
      <trkpt lat="47.7451" lon="7.4346">
        <ele>286</ele>
        <time>2017-06-16T14:20:43Z</time>
      </trkpt>
      <trkpt lat="47.7438" lon="7.4338">
        <ele>282</ele>
        <time>2017-06-16T14:20:49Z</time>
      </trkpt>
      <trkpt lat="47.743" lon="7.4333">
        <ele>283</ele>
        <time>2017-06-16T14:20:54Z</time>
      </trkpt>
      <trkpt lat="47.7423" lon="7.4329">
        <ele>284</ele>
        <time>2017-06-16T14:20:59Z</time>
      </trkpt>
      <trkpt lat="47.7416" lon="7.4324">
        <ele>282</ele>
        <time>2017-06-16T14:21:06Z</time>
      </trkpt>
      <trkpt lat="47.7384" lon="7.4305">
        <ele>269</ele>
        <time>2017-06-16T14:21:40Z</time>
      </trkpt>
      <trkpt lat="47.7376" lon="7.43">
        <ele>267</ele>
        <time>2017-06-16T14:21:50Z</time>
      </trkpt>
      <trkpt lat="47.7373" lon="7.4298">
        <ele>265</ele>
        <time>2017-06-16T14:21:56Z</time>
      </trkpt>
      <trkpt lat="47.7372" lon="7.4295">
        <ele>264</ele>
        <time>2017-06-16T14:22:01Z</time>
      </trkpt>
      <trkpt lat="47.7373" lon="7.4293">
        <ele>262</ele>
        <time>2017-06-16T14:22:06Z</time>
      </trkpt>
      <trkpt lat="47.7373" lon="7.429">
        <ele>261</ele>
        <time>2017-06-16T14:22:11Z</time>
      </trkpt>
      <trkpt lat="47.7375" lon="7.4286">
        <ele>260</ele>
        <time>2017-06-16T14:22:17Z</time>
      </trkpt>
      <trkpt lat="47.7376" lon="7.4281">
        <ele>259</ele>
        <time>2017-06-16T14:22:23Z</time>
      </trkpt>
      <trkpt lat="47.7379" lon="7.4279">
        <ele>258</ele>
        <time>2017-06-16T14:22:28Z</time>
      </trkpt>
      <trkpt lat="47.7382" lon="7.4278">
        <ele>258</ele>
        <time>2017-06-16T14:22:33Z</time>
      </trkpt>
      <trkpt lat="47.7387" lon="7.4276">
        <ele>257</ele>
        <time>2017-06-16T14:22:40Z</time>
      </trkpt>
      <trkpt lat="47.7409" lon="7.4268">
        <ele>253</ele>
        <time>2017-06-16T14:23:08Z</time>
      </trkpt>
      <trkpt lat="47.744" lon="7.4248">
        <ele>248</ele>
        <time>2017-06-16T14:23:48Z</time>
      </trkpt>
      <trkpt lat="47.7444" lon="7.4246">
        <ele>248</ele>
        <time>2017-06-16T14:23:54Z</time>
      </trkpt>
      <trkpt lat="47.7446" lon="7.4244">
        <ele>247</ele>
        <time>2017-06-16T14:23:59Z</time>
      </trkpt>
      <trkpt lat="47.7447" lon="7.4242">
        <ele>247</ele>
        <time>2017-06-16T14:24:04Z</time>
      </trkpt>
      <trkpt lat="47.7449" lon="7.4241">
        <ele>247</ele>
        <time>2017-06-16T14:24:09Z</time>
      </trkpt>
      <trkpt lat="47.745" lon="7.424">
        <ele>247</ele>
        <time>2017-06-16T14:24:14Z</time>
      </trkpt>
      <trkpt lat="47.7451" lon="7.4239">
        <ele>247</ele>
        <time>2017-06-16T14:24:19Z</time>
      </trkpt>
      <trkpt lat="47.7451" lon="7.4239">
        <ele>247</ele>
        <time>2017-06-16T14:24:24Z</time>
      </trkpt>
      <trkpt lat="47.7451" lon="7.4239">
        <ele>247</ele>
        <time>2017-06-16T14:25:24Z</time>
      </trkpt>
    </trkseg>
  </trk>
</gpx>